createdAt,value
2022-12-24T00:01:03.790Z,84.05
2022-12-24T00:03:30.974Z,83.63
2022-12-24T00:05:58.259Z,82.66
2022-12-24T00:08:25.313Z,82.41
2022-12-24T00:10:52.879Z,82.57
2022-12-24T00:13:20.232Z,83.34
2022-12-24T00:15:47.210Z,84.61
2022-12-24T00:18:14.219Z,85.39
2022-12-24T00:20:41.152Z,83.71
2022-12-24T00:23:08.132Z,83.62
2022-12-24T00:25:35.032Z,84.07
2022-12-24T00:28:01.934Z,85.25
2022-12-24T00:30:29.038Z,86.37
2022-12-24T00:32:55.932Z,85.84
2022-12-24T00:35:22.861Z,85.10
2022-12-24T00:37:49.769Z,85.00
2022-12-24T00:40:17.242Z,85.83
2022-12-24T00:42:44.274Z,86.34
2022-12-24T00:45:11.831Z,85.66
2022-12-24T00:47:38.888Z,84.75
2022-12-24T00:50:06.924Z,84.90
2022-12-24T00:52:33.909Z,85.26
2022-12-24T00:55:00.868Z,86.43
2022-12-24T00:57:27.822Z,86.67
2022-12-24T00:59:54.731Z,85.43
2022-12-24T01:02:21.965Z,85.30
2022-12-24T01:05:07.847Z,85.62
2022-12-24T01:07:34.827Z,85.92
2022-12-24T01:10:01.686Z,84.71
2022-12-24T01:12:28.612Z,83.45
2022-12-24T01:14:55.534Z,83.15
2022-12-24T01:17:22.446Z,83.99
2022-12-24T01:19:49.289Z,84.62
2022-12-24T01:22:16.128Z,85.75
2022-12-24T01:24:43.100Z,84.64
2022-12-24T01:27:09.942Z,83.45
2022-12-24T01:29:36.887Z,83.60
2022-12-24T01:32:03.931Z,83.82
2022-12-24T01:34:31.038Z,84.34
2022-12-24T01:36:57.868Z,84.59
2022-12-24T01:39:24.737Z,83.36
2022-12-24T01:42:10.365Z,82.66
2022-12-24T01:44:42.154Z,83.03
2022-12-24T01:47:11.397Z,84.02
2022-12-24T01:49:42.969Z,84.61
2022-12-24T01:52:13.239Z,83.36
2022-12-24T01:55:01.624Z,82.17
2022-12-24T01:57:32.027Z,82.24
2022-12-24T02:00:00.935Z,83.11
2022-12-24T02:02:28.064Z,83.48
2022-12-24T02:04:59.273Z,84.37
2022-12-24T02:07:26.163Z,82.91
2022-12-24T02:10:00.135Z,81.64
2022-12-24T02:12:27.809Z,81.48
2022-12-24T02:14:54.675Z,81.99
2022-12-24T02:17:42.297Z,82.57
2022-12-24T02:20:31.654Z,83.45
2022-12-24T02:23:17.321Z,82.75
2022-12-24T02:26:07.816Z,81.59
2022-12-24T02:28:56.428Z,81.64
2022-12-24T02:31:27.657Z,82.47
2022-12-24T02:34:06.755Z,82.92
2022-12-24T02:36:40.964Z,83.61
2022-12-24T02:39:13.157Z,83.16
2022-12-24T02:42:01.335Z,82.06
2022-12-24T02:44:29.068Z,81.93
2022-12-24T02:46:57.001Z,82.54
2022-12-24T02:49:23.859Z,83.42
2022-12-24T02:51:50.750Z,84.26
2022-12-24T02:54:17.632Z,84.58
2022-12-24T02:57:08.322Z,82.92
2022-12-24T02:59:55.384Z,81.94
2022-12-24T03:02:44.646Z,82.02
2022-12-24T03:05:20.582Z,82.63
2022-12-24T03:07:59.870Z,83.32
2022-12-24T03:10:35.910Z,83.42
2022-12-24T03:13:09.235Z,82.88
2022-12-24T03:15:36.246Z,81.21
2022-12-24T03:18:03.122Z,80.51
2022-12-24T03:20:34.927Z,80.79
2022-12-24T03:23:01.786Z,81.79
2022-12-24T03:25:28.629Z,82.66
2022-12-24T03:27:56.596Z,83.76
2022-12-24T03:30:23.881Z,84.54
2022-12-24T03:32:50.830Z,83.91
2022-12-24T03:35:17.719Z,82.32
2022-12-24T03:37:45.270Z,81.18
2022-12-24T03:40:12.584Z,81.08
2022-12-24T03:42:39.422Z,81.61
2022-12-24T03:45:06.645Z,82.62
2022-12-24T03:47:33.589Z,83.86
2022-12-24T03:50:00.462Z,84.59
2022-12-24T03:52:27.301Z,83.91
2022-12-24T03:54:54.275Z,82.17
2022-12-24T03:57:21.183Z,81.24
2022-12-24T03:59:48.099Z,81.77
2022-12-24T04:02:15.075Z,82.21
2022-12-24T04:04:42.077Z,83.16
2022-12-24T04:07:09.040Z,83.68
2022-12-24T04:09:36.060Z,82.80
2022-12-24T04:12:03.083Z,81.34
2022-12-24T04:14:29.901Z,81.00
2022-12-24T04:16:56.789Z,81.50
2022-12-24T04:19:23.672Z,82.13
2022-12-24T04:21:50.756Z,82.77
2022-12-24T04:24:17.658Z,83.89
2022-12-24T04:26:44.537Z,83.04
2022-12-24T04:29:11.358Z,81.96
2022-12-24T04:31:38.342Z,81.81
2022-12-24T04:34:05.285Z,82.28
2022-12-24T04:36:32.153Z,83.30
2022-12-24T04:38:59.071Z,83.76
2022-12-24T04:41:25.963Z,83.50
2022-12-24T04:43:53.531Z,82.12
2022-12-24T04:46:22.270Z,81.43
2022-12-24T04:48:50.114Z,81.90
2022-12-24T04:51:17.307Z,82.46
2022-12-24T04:53:44.415Z,83.19
2022-12-24T04:56:16.461Z,83.46
2022-12-24T04:58:43.352Z,81.98
2022-12-24T05:01:23.829Z,81.27
2022-12-24T05:03:51.281Z,81.67
2022-12-24T05:06:23.285Z,82.51
2022-12-24T05:08:50.248Z,83.22
2022-12-24T05:11:17.260Z,83.22
2022-12-24T05:13:47.563Z,83.37
2022-12-24T05:16:15.821Z,81.63
2022-12-24T05:18:42.875Z,80.79
2022-12-24T05:21:20.193Z,80.84
2022-12-24T05:24:05.787Z,81.24
2022-12-24T05:26:35.768Z,82.07
2022-12-24T05:29:03.645Z,82.52
2022-12-24T05:31:31.589Z,82.35
2022-12-24T05:33:58.477Z,80.89
2022-12-24T05:36:25.421Z,80.52
2022-12-24T05:38:52.474Z,80.86
2022-12-24T05:41:19.593Z,81.51
2022-12-24T05:43:46.512Z,82.25
2022-12-24T05:46:14.970Z,82.93
2022-12-24T05:48:41.864Z,82.48
2022-12-24T05:51:10.633Z,81.22
2022-12-24T05:53:37.581Z,80.87
2022-12-24T05:56:12.453Z,81.12
2022-12-24T05:58:39.846Z,81.54
2022-12-24T06:01:07.009Z,82.20
2022-12-24T06:03:34.324Z,82.95
2022-12-24T06:06:05.348Z,82.19
2022-12-24T06:08:32.440Z,81.38
2022-12-24T06:11:00.526Z,81.22
2022-12-24T06:13:27.497Z,81.80
2022-12-24T06:15:55.748Z,82.64
2022-12-24T06:18:23.171Z,83.43
2022-12-24T06:20:51.893Z,83.25
2022-12-24T06:23:18.990Z,81.74
2022-12-24T06:25:46.515Z,81.03
2022-12-24T06:28:13.809Z,81.08
2022-12-24T06:30:41.165Z,81.86
2022-12-24T06:33:08.160Z,82.53
2022-12-24T06:35:36.224Z,82.74
2022-12-24T06:38:03.215Z,81.61
2022-12-24T06:40:30.244Z,81.45
2022-12-24T06:42:57.258Z,81.62
2022-12-24T06:45:24.833Z,81.98
2022-12-24T06:47:52.096Z,82.71
2022-12-24T06:50:19.124Z,82.62
2022-12-24T06:52:46.221Z,80.68
2022-12-24T06:55:13.257Z,79.91
2022-12-24T06:57:40.252Z,80.11
2022-12-24T07:00:08.740Z,80.68
2022-12-24T07:02:35.890Z,80.95
2022-12-24T07:05:02.996Z,81.75
2022-12-24T07:07:30.037Z,81.40
2022-12-24T07:09:57.061Z,80.02
2022-12-24T07:12:24.082Z,79.51
2022-12-24T07:14:51.074Z,79.25
2022-12-24T07:17:18.820Z,80.03
2022-12-24T07:19:46.378Z,80.31
2022-12-24T07:22:15.792Z,81.07
2022-12-24T07:25:03.504Z,81.15
2022-12-24T07:27:31.884Z,80.02
2022-12-24T07:30:01.165Z,79.82
2022-12-24T07:32:31.160Z,80.02
2022-12-24T07:35:00.382Z,80.53
2022-12-24T07:37:29.196Z,81.11
2022-12-24T07:39:59.161Z,81.80
2022-12-24T07:42:28.950Z,80.75
2022-12-24T07:44:58.571Z,79.22
2022-12-24T07:47:27.655Z,78.46
2022-12-24T07:49:57.205Z,78.76
2022-12-24T07:52:26.210Z,79.37
2022-12-24T07:54:55.181Z,80.21
2022-12-24T07:57:23.640Z,80.86
2022-12-24T07:59:53.696Z,80.66
2022-12-24T08:02:23.936Z,79.48
2022-12-24T08:04:54.586Z,78.54
2022-12-24T08:07:24.221Z,78.19
2022-12-24T08:10:14.632Z,78.14
2022-12-24T08:12:43.678Z,78.67
2022-12-24T08:15:13.250Z,79.03
2022-12-24T08:17:42.134Z,79.22
2022-12-24T08:20:11.867Z,77.94
2022-12-24T08:22:41.257Z,76.51
2022-12-24T08:25:10.476Z,76.94
2022-12-24T08:35:52.770Z,80.24
2022-12-24T08:38:20.872Z,78.70
2022-12-24T08:40:52.256Z,77.73
2022-12-24T08:43:19.239Z,77.56
2022-12-24T08:45:47.199Z,77.87
2022-12-24T08:48:14.146Z,78.39
2022-12-24T08:50:41.702Z,79.07
2022-12-24T08:53:09.366Z,80.21
2022-12-24T08:55:36.603Z,79.30
2022-12-24T08:58:03.673Z,77.52
2022-12-24T09:00:30.709Z,77.18
2022-12-24T09:02:58.091Z,77.53
2022-12-24T09:05:26.248Z,77.68
2022-12-24T09:07:53.166Z,78.40
2022-12-24T09:10:20.014Z,78.68
2022-12-24T09:12:47.904Z,78.47
2022-12-24T09:15:15.002Z,77.87
2022-12-24T09:17:42.224Z,77.47
2022-12-24T09:20:09.959Z,77.10
2022-12-24T09:22:38.150Z,77.17
2022-12-24T09:27:54.464Z,77.12
2022-12-24T09:30:21.559Z,77.10
2022-12-24T09:32:48.662Z,77.55
2022-12-24T09:35:15.689Z,77.74
2022-12-24T09:37:42.636Z,76.36
2022-12-24T09:40:37.835Z,75.46
2022-12-24T09:43:31.918Z,75.34
2022-12-24T09:45:58.798Z,75.69
2022-12-24T09:48:28.888Z,76.48
2022-12-24T09:51:02.573Z,76.96
2022-12-24T09:53:57.332Z,77.57
2022-12-24T09:56:33.955Z,78.26
2022-12-24T09:59:02.464Z,78.21
2022-12-24T10:01:30.563Z,76.65
2022-12-24T10:04:09.975Z,75.56
2022-12-24T10:06:43.572Z,75.56
2022-12-24T10:09:20.940Z,76.03
2022-12-24T10:11:54.695Z,76.78
2022-12-24T10:14:30.935Z,77.14
2022-12-24T10:17:23.421Z,77.90
2022-12-24T10:20:15.517Z,78.50
2022-12-24T10:23:24.927Z,78.14
2022-12-24T10:26:10.410Z,76.32
2022-12-24T10:28:48.007Z,75.61
2022-12-24T10:31:15.324Z,75.95
2022-12-24T10:33:44.891Z,76.26
2022-12-24T10:36:17.547Z,77.08
2022-12-24T10:38:45.709Z,78.14
2022-12-24T10:41:13.689Z,78.56
2022-12-24T10:43:42.564Z,78.14
2022-12-24T10:46:20.184Z,77.82
2022-12-24T10:49:00.935Z,77.62
2022-12-24T10:51:40.984Z,78.34
2022-12-24T10:54:18.336Z,78.79
2022-12-24T10:56:50.696Z,79.26
2022-12-24T10:59:39.806Z,78.28
2022-12-24T11:02:32.137Z,79.13
2022-12-24T11:05:00.373Z,79.08
2022-12-24T11:07:28.659Z,79.19
2022-12-24T11:10:04.452Z,79.87
2022-12-24T11:12:33.238Z,80.37
2022-12-24T11:15:08.098Z,80.45
2022-12-24T11:17:35.032Z,78.62
2022-12-24T11:20:03.592Z,78.29
2022-12-24T11:22:31.554Z,78.97
2022-12-24T11:25:03.358Z,80.03
2022-12-24T11:27:51.742Z,80.56
2022-12-24T11:30:31.180Z,80.75
2022-12-24T11:33:01.237Z,79.31
2022-12-24T11:35:29.499Z,78.90
2022-12-24T11:38:03.304Z,79.51
2022-12-24T11:43:25.431Z,81.80
2022-12-24T11:45:56.511Z,81.58
2022-12-24T11:48:29.705Z,80.11
2022-12-24T11:51:06.571Z,79.78
2022-12-24T11:53:55.934Z,80.24
2022-12-24T11:56:31.587Z,81.03
2022-12-24T11:59:02.659Z,81.54
2022-12-24T12:01:51.230Z,82.05
2022-12-24T12:04:23.038Z,80.12
2022-12-24T12:07:15.435Z,79.79
2022-12-24T12:09:56.682Z,80.35
2022-12-24T12:12:26.477Z,80.88
2022-12-24T12:15:01.093Z,81.80
2022-12-24T12:17:40.998Z,82.36
2022-12-24T12:20:25.188Z,80.82
2022-12-24T12:23:29.082Z,80.33
2022-12-24T12:26:13.135Z,80.88
2022-12-24T12:28:50.225Z,81.28
2022-12-24T12:31:37.210Z,81.77
2022-12-24T12:34:08.015Z,82.06
2022-12-24T12:36:39.658Z,80.90
2022-12-24T12:39:06.675Z,80.39
2022-12-24T12:41:37.962Z,80.80
2022-12-24T12:44:43.476Z,81.33
2022-12-24T12:47:26.008Z,81.95
2022-12-24T12:50:14.850Z,82.24
2022-12-24T12:53:00.434Z,82.35
2022-12-24T12:55:58.659Z,80.65
2022-12-24T12:58:37.877Z,80.14
2022-12-24T13:01:32.547Z,80.35
2022-12-24T13:04:15.991Z,81.28
2022-12-24T13:07:08.624Z,81.52
2022-12-24T13:09:58.199Z,81.93
2022-12-24T13:12:31.396Z,82.03
2022-12-24T13:15:04.999Z,80.80
2022-12-24T13:18:01.376Z,80.19
2022-12-24T13:20:29.901Z,80.52
2022-12-24T13:22:56.760Z,81.03
2022-12-24T13:25:35.248Z,81.57
2022-12-24T13:28:35.196Z,82.19
2022-12-24T13:31:02.123Z,82.54
2022-12-24T13:33:38.832Z,81.31
2022-12-24T13:36:18.775Z,80.53
2022-12-24T13:38:58.449Z,80.25
2022-12-24T13:41:41.135Z,80.61
2022-12-24T13:44:13.294Z,80.93
2022-12-24T13:46:47.779Z,81.78
2022-12-24T13:49:22.406Z,82.00
2022-12-24T13:51:51.096Z,81.02
2022-12-24T13:54:21.021Z,80.20
2022-12-24T13:56:47.953Z,80.20
2022-12-24T13:59:39.020Z,80.59
2022-12-24T14:02:06.542Z,81.24
2022-12-24T14:04:35.397Z,81.67
2022-12-24T14:07:03.817Z,81.86
2022-12-24T14:09:31.062Z,80.98
2022-12-24T14:12:04.230Z,80.37
2022-12-24T14:14:38.942Z,80.29
2022-12-24T14:17:18.490Z,80.58
2022-12-24T14:19:48.022Z,81.20
2022-12-24T14:22:29.901Z,81.86
2022-12-24T14:24:59.002Z,82.46
2022-12-24T14:27:34.017Z,81.49
2022-12-24T14:30:20.951Z,80.76
2022-12-24T14:32:49.116Z,80.49
2022-12-24T14:35:20.470Z,80.63
2022-12-24T14:37:49.696Z,81.13
2022-12-24T14:40:18.920Z,81.84
2022-12-24T14:43:13.661Z,82.02
2022-12-24T14:45:44.512Z,80.96
2022-12-24T14:48:26.085Z,80.21
2022-12-24T14:51:18.448Z,80.53
2022-12-24T14:53:54.129Z,80.91
2022-12-24T14:56:22.646Z,81.80
2022-12-24T14:58:50.029Z,82.72
2022-12-24T15:01:43.626Z,83.01
2022-12-24T15:04:10.689Z,81.90
2022-12-24T15:06:49.598Z,81.18
2022-12-24T15:09:20.441Z,80.79
2022-12-24T15:11:49.057Z,80.80
2022-12-24T15:14:16.689Z,81.31
2022-12-24T15:16:44.165Z,81.83
2022-12-24T15:19:22.878Z,82.27
2022-12-24T15:21:49.961Z,81.19
2022-12-24T15:24:37.539Z,80.61
2022-12-24T15:27:17.149Z,80.84
2022-12-24T15:29:45.408Z,80.51
2022-12-24T15:32:19.354Z,81.12
2022-12-24T15:34:47.962Z,81.72
2022-12-24T15:37:21.196Z,81.97
2022-12-24T15:40:27.049Z,81.12
2022-12-24T15:42:56.009Z,80.61
2022-12-24T15:45:29.983Z,80.25
2022-12-24T15:47:59.566Z,80.36
2022-12-24T15:50:32.655Z,80.70
2022-12-24T15:53:19.906Z,81.13
2022-12-24T15:56:06.600Z,81.70
2022-12-24T15:58:35.803Z,80.69
2022-12-24T16:01:08.778Z,80.11
2022-12-24T16:03:37.891Z,80.16
2022-12-24T16:06:11.941Z,80.50
2022-12-24T16:11:25.617Z,80.71
2022-12-24T16:14:07.842Z,81.37
2022-12-24T16:16:37.516Z,79.61
2022-12-24T16:19:06.304Z,78.42
2022-12-24T16:21:36.334Z,79.07
2022-12-24T16:24:21.252Z,80.07
2022-12-24T16:26:48.470Z,80.35
2022-12-24T16:29:15.983Z,80.63
2022-12-24T16:31:56.423Z,81.25
2022-12-24T16:34:30.009Z,81.67
2022-12-24T16:36:57.396Z,81.12
2022-12-24T16:39:30.950Z,80.49
2022-12-24T16:42:18.196Z,80.13
2022-12-24T16:44:45.231Z,80.73
2022-12-24T16:47:22.816Z,81.23
2022-12-24T16:49:49.943Z,81.82
2022-12-24T16:52:21.539Z,81.96
2022-12-24T16:54:49.478Z,80.06
2022-12-24T16:57:17.522Z,79.68
2022-12-24T16:59:44.592Z,80.09
2022-12-24T17:02:17.250Z,80.90
2022-12-24T17:04:44.512Z,81.60
2022-12-24T17:07:12.707Z,82.00
2022-12-24T17:09:39.645Z,82.77
2022-12-24T17:12:06.865Z,83.23
2022-12-24T17:14:33.927Z,82.10
2022-12-24T17:17:01.226Z,81.49
2022-12-24T17:39:27.963Z,79.64
2022-12-24T17:41:55.234Z,79.69
2022-12-24T17:44:22.246Z,81.00
2022-12-24T17:46:49.565Z,83.07
2022-12-24T17:49:16.551Z,85.30
2022-12-24T17:51:45.922Z,86.83
2022-12-24T17:54:13.511Z,86.54
2022-12-24T17:56:40.763Z,84.56
2022-12-24T17:59:07.668Z,83.48
2022-12-24T18:01:34.764Z,83.56
2022-12-24T18:04:02.920Z,84.57
2022-12-24T18:06:30.081Z,85.08
2022-12-24T18:08:57.226Z,85.49
2022-12-24T18:11:33.057Z,85.42
2022-12-24T18:14:01.383Z,84.09
2022-12-24T18:16:33.714Z,83.11
2022-12-24T18:19:01.186Z,82.50
2022-12-24T18:21:30.234Z,82.57
2022-12-24T18:23:57.727Z,83.02
2022-12-24T18:26:26.679Z,83.51
2022-12-24T18:28:54.654Z,83.13
2022-12-24T18:31:21.830Z,81.41
2022-12-24T18:36:31.223Z,80.79
2022-12-24T18:38:58.186Z,80.98
2022-12-24T18:41:27.439Z,81.39
2022-12-24T18:43:54.621Z,81.67
2022-12-24T18:46:23.966Z,82.23
2022-12-24T18:49:11.968Z,82.47
2022-12-24T18:51:38.845Z,81.36
2022-12-24T18:54:06.068Z,80.81
2022-12-24T18:56:33.372Z,80.88
2022-12-24T18:59:02.071Z,80.81
2022-12-24T19:01:31.278Z,81.59
2022-12-24T19:03:58.704Z,82.18
2022-12-24T19:06:25.741Z,82.72
2022-12-24T19:09:01.698Z,82.72
2022-12-24T19:11:30.966Z,81.71
2022-12-24T19:13:58.382Z,81.22
2022-12-24T19:16:26.248Z,81.09
2022-12-24T19:18:53.925Z,81.04
2022-12-24T19:21:21.034Z,81.53
2022-12-24T19:23:48.098Z,82.07
2022-12-24T19:26:16.270Z,82.40
2022-12-24T19:28:43.259Z,82.82
2022-12-24T19:31:12.443Z,81.62
2022-12-24T19:33:43.143Z,80.85
2022-12-24T19:36:13.575Z,80.77
2022-12-24T19:38:40.637Z,80.67
2022-12-24T19:41:09.006Z,80.88
2022-12-24T19:43:56.301Z,81.52
2022-12-24T19:46:25.431Z,82.43
2022-12-24T19:48:57.577Z,82.56
2022-12-24T19:51:25.446Z,81.51
2022-12-24T19:53:53.652Z,80.97
2022-12-24T19:56:21.886Z,81.10
2022-12-24T19:58:49.148Z,81.49
2022-12-24T20:01:23.612Z,81.56
2022-12-24T20:03:51.341Z,81.89
2022-12-24T20:06:20.605Z,82.91
2022-12-24T20:08:48.450Z,82.99
2022-12-24T20:11:19.135Z,81.89
2022-12-24T20:13:46.544Z,81.23
2022-12-24T20:16:17.903Z,80.78
2022-12-24T20:18:51.233Z,80.89
2022-12-24T20:21:18.286Z,81.08
2022-12-24T20:23:45.334Z,81.81
2022-12-24T20:26:14.343Z,82.61
2022-12-24T20:28:41.745Z,82.65
2022-12-24T20:31:16.161Z,81.28
2022-12-24T20:33:43.672Z,80.38
2022-12-24T20:36:11.338Z,80.79
2022-12-24T20:38:39.315Z,80.98
2022-12-24T20:41:14.887Z,81.29
2022-12-24T20:44:59.193Z,81.68
2022-12-24T20:47:26.438Z,82.64
2022-12-24T20:49:53.385Z,82.03
2022-12-24T20:52:20.469Z,80.85
2022-12-24T20:54:47.400Z,79.99
2022-12-24T20:57:14.295Z,79.85
2022-12-24T20:59:41.476Z,80.01
2022-12-24T21:02:13.155Z,80.47
2022-12-24T21:04:40.339Z,81.65
2022-12-24T21:07:07.447Z,82.74
2022-12-24T21:09:34.279Z,83.27
2022-12-24T21:12:24.253Z,81.78
2022-12-24T21:14:51.231Z,80.57
2022-12-24T21:17:18.304Z,81.95
2022-12-24T21:19:45.393Z,83.05
2022-12-24T21:22:12.355Z,83.89
2022-12-24T21:24:39.898Z,84.30
2022-12-24T21:27:06.799Z,85.02
2022-12-24T21:29:33.708Z,84.66
2022-12-24T21:32:00.607Z,82.95
2022-12-24T21:34:27.578Z,82.67
2022-12-24T21:36:55.024Z,83.06
2022-12-24T21:39:22.075Z,84.26
2022-12-24T21:41:49.226Z,85.05
2022-12-24T21:44:16.215Z,86.07
2022-12-24T21:46:43.221Z,86.04
2022-12-24T21:49:28.877Z,84.60
2022-12-24T21:51:55.848Z,82.71
2022-12-24T21:54:30.793Z,82.85
2022-12-24T21:57:24.813Z,82.72
2022-12-24T21:59:52.913Z,83.58
2022-12-24T22:02:20.904Z,84.43
2022-12-24T22:04:47.944Z,84.47
2022-12-24T22:10:26.317Z,82.41
2022-12-24T22:12:53.938Z,82.06
2022-12-24T22:15:21.412Z,82.15
2022-12-24T22:17:48.363Z,83.33
2022-12-24T22:20:15.280Z,84.13
2022-12-24T22:22:42.272Z,84.49
2022-12-24T22:25:09.191Z,83.41
2022-12-24T22:27:36.227Z,83.21
2022-12-24T22:30:03.300Z,84.58
2022-12-24T22:32:30.201Z,85.85
2022-12-24T22:34:57.673Z,87.52
2022-12-24T22:37:24.561Z,88.80
2022-12-24T22:39:51.565Z,87.48
2022-12-24T22:42:18.434Z,86.63
2022-12-24T22:44:47.911Z,86.08
2022-12-24T22:47:14.886Z,86.31
2022-12-24T22:49:41.812Z,86.65
2022-12-24T22:52:09.397Z,86.79
2022-12-24T22:54:36.397Z,86.48
2022-12-24T22:57:03.449Z,85.02
2022-12-24T22:59:30.325Z,83.70
2022-12-24T23:01:58.245Z,83.27
2022-12-24T23:04:26.325Z,83.22
2022-12-24T23:06:53.223Z,85.20
2022-12-24T23:09:20.229Z,86.88
2022-12-24T23:11:47.232Z,86.63
2022-12-24T23:14:35.159Z,84.84
2022-12-24T23:17:02.092Z,84.88
2022-12-24T23:19:29.623Z,85.92
2022-12-24T23:21:56.602Z,86.83
2022-12-24T23:24:23.599Z,88.59
2022-12-24T23:26:51.094Z,89.03
2022-12-24T23:29:18.213Z,87.40
2022-12-24T23:31:45.203Z,86.76
2022-12-24T23:34:12.306Z,87.85
2022-12-24T23:36:39.243Z,89.37
2022-12-24T23:39:06.133Z,90.14
2022-12-24T23:41:33.140Z,88.98
2022-12-24T23:44:00.081Z,87.35
2022-12-24T23:46:27.271Z,86.86
2022-12-24T23:48:54.899Z,88.04
2022-12-24T23:51:24.969Z,88.94
2022-12-24T23:53:52.887Z,90.53
2022-12-24T23:56:20.642Z,90.07
2022-12-24T23:58:47.693Z,88.10
